sensor_id;sensor_type;location;lat;lon;timestamp;P1;durP1;ratioP1;P2;durP2;ratioP2
16484;SDS011;8353;47.856;12.344;2023-05-29T00:01:41;2.55;;;2.35;;
16484;SDS011;8353;47.856;12.344;2023-05-29T00:04:28;3.10;;;2.65;;
16484;SDS011;8353;47.856;12.344;2023-05-29T00:07:15;3.38;;;2.35;;
16484;SDS011;8353;47.856;12.344;2023-05-29T00:10:04;3.10;;;2.17;;
16484;SDS011;8353;47.856;12.344;2023-05-29T00:12:52;3.97;;;2.60;;
16484;SDS011;8353;47.856;12.344;2023-05-29T00:15:41;3.75;;;2.17;;
16484;SDS011;8353;47.856;12.344;2023-05-29T00:18:28;2.90;;;2.20;;
16484;SDS011;8353;47.856;12.344;2023-05-29T00:21:15;2.55;;;2.35;;
16484;SDS011;8353;47.856;12.344;2023-05-29T00:24:02;3.30;;;2.22;;
16484;SDS011;8353;47.856;12.344;2023-05-29T00:26:50;2.30;;;2.08;;
16484;SDS011;8353;47.856;12.344;2023-05-29T00:29:37;3.58;;;2.42;;
16484;SDS011;8353;47.856;12.344;2023-05-29T00:32:24;2.42;;;2.22;;
16484;SDS011;8353;47.856;12.344;2023-05-29T00:35:12;2.47;;;2.13;;
16484;SDS011;8353;47.856;12.344;2023-05-29T00:37:59;3.13;;;2.35;;
16484;SDS011;8353;47.856;12.344;2023-05-29T00:40:46;2.08;;;1.88;;
16484;SDS011;8353;47.856;12.344;2023-05-29T00:43:35;1.85;;;1.75;;
16484;SDS011;8353;47.856;12.344;2023-05-29T00:46:22;4.47;;;2.47;;
16484;SDS011;8353;47.856;12.344;2023-05-29T00:49:09;2.92;;;2.40;;
16484;SDS011;8353;47.856;12.344;2023-05-29T00:51:57;3.00;;;2.70;;
16484;SDS011;8353;47.856;12.344;2023-05-29T00:54:44;3.22;;;2.63;;
16484;SDS011;8353;47.856;12.344;2023-05-29T00:57:33;2.25;;;2.05;;
16484;SDS011;8353;47.856;12.344;2023-05-29T01:00:21;2.65;;;2.20;;
16484;SDS011;8353;47.856;12.344;2023-05-29T01:03:08;4.95;;;2.80;;
16484;SDS011;8353;47.856;12.344;2023-05-29T01:05:59;2.22;;;2.03;;
16484;SDS011;8353;47.856;12.344;2023-05-29T01:08:48;4.15;;;2.78;;
16484;SDS011;8353;47.856;12.344;2023-05-29T01:11:36;2.58;;;2.28;;
16484;SDS011;8353;47.856;12.344;2023-05-29T01:14:33;2.25;;;1.90;;
16484;SDS011;8353;47.856;12.344;2023-05-29T01:17:36;2.67;;;2.17;;
16484;SDS011;8353;47.856;12.344;2023-05-29T01:20:32;3.80;;;2.30;;
16484;SDS011;8353;47.856;12.344;2023-05-29T01:23:32;2.88;;;2.42;;
16484;SDS011;8353;47.856;12.344;2023-05-29T01:26:48;2.67;;;2.20;;
16484;SDS011;8353;47.856;12.344;2023-05-29T01:29:38;2.42;;;2.20;;
16484;SDS011;8353;47.856;12.344;2023-05-29T01:32:27;2.20;;;2.00;;
16484;SDS011;8353;47.856;12.344;2023-05-29T01:35:15;2.77;;;2.47;;
16484;SDS011;8353;47.856;12.344;2023-05-29T01:38:02;3.90;;;2.40;;
16484;SDS011;8353;47.856;12.344;2023-05-29T01:40:49;2.77;;;2.10;;
16484;SDS011;8353;47.856;12.344;2023-05-29T01:43:38;3.13;;;2.78;;
16484;SDS011;8353;47.856;12.344;2023-05-29T01:46:25;3.40;;;2.58;;
16484;SDS011;8353;47.856;12.344;2023-05-29T01:49:13;2.70;;;2.50;;
16484;SDS011;8353;47.856;12.344;2023-05-29T01:52:01;3.67;;;2.42;;
16484;SDS011;8353;47.856;12.344;2023-05-29T01:54:48;2.20;;;1.85;;
16484;SDS011;8353;47.856;12.344;2023-05-29T01:57:35;2.90;;;2.30;;
16484;SDS011;8353;47.856;12.344;2023-05-29T02:00:25;2.80;;;2.30;;
16484;SDS011;8353;47.856;12.344;2023-05-29T02:03:12;3.40;;;2.43;;
16484;SDS011;8353;47.856;12.344;2023-05-29T02:05:59;2.90;;;2.40;;
16484;SDS011;8353;47.856;12.344;2023-05-29T02:08:47;2.73;;;2.37;;
16484;SDS011;8353;47.856;12.344;2023-05-29T02:11:34;3.25;;;2.10;;
16484;SDS011;8353;47.856;12.344;2023-05-29T02:14:21;2.20;;;2.00;;
16484;SDS011;8353;47.856;12.344;2023-05-29T02:17:11;2.40;;;2.20;;
16484;SDS011;8353;47.856;12.344;2023-05-29T02:20:00;3.07;;;2.60;;
16484;SDS011;8353;47.856;12.344;2023-05-29T02:22:48;2.37;;;2.17;;
16484;SDS011;8353;47.856;12.344;2023-05-29T02:25:35;5.23;;;3.17;;
16484;SDS011;8353;47.856;12.344;2023-05-29T02:28:22;3.10;;;2.73;;
16484;SDS011;8353;47.856;12.344;2023-05-29T02:31:09;2.73;;;2.33;;
16484;SDS011;8353;47.856;12.344;2023-05-29T02:33:58;2.83;;;2.53;;
16484;SDS011;8353;47.856;12.344;2023-05-29T02:36:44;2.72;;;2.30;;
16484;SDS011;8353;47.856;12.344;2023-05-29T02:39:31;2.90;;;2.33;;
16484;SDS011;8353;47.856;12.344;2023-05-29T02:42:19;3.00;;;2.70;;
16484;SDS011;8353;47.856;12.344;2023-05-29T02:45:06;2.43;;;2.20;;
16484;SDS011;8353;47.856;12.344;2023-05-29T02:47:54;3.77;;;2.63;;
16484;SDS011;8353;47.856;12.344;2023-05-29T02:50:42;2.43;;;2.23;;
16484;SDS011;8353;47.856;12.344;2023-05-29T02:53:29;2.47;;;2.27;;
16484;SDS011;8353;47.856;12.344;2023-05-29T02:56:17;2.67;;;2.40;;
16484;SDS011;8353;47.856;12.344;2023-05-29T02:59:08;3.43;;;2.80;;
16484;SDS011;8353;47.856;12.344;2023-05-29T03:01:55;2.60;;;2.27;;
16484;SDS011;8353;47.856;12.344;2023-05-29T03:04:42;2.80;;;2.50;;
16484;SDS011;8353;47.856;12.344;2023-05-29T03:07:32;2.37;;;1.90;;
16484;SDS011;8353;47.856;12.344;2023-05-29T03:10:19;2.77;;;2.57;;
16484;SDS011;8353;47.856;12.344;2023-05-29T03:13:06;3.07;;;2.27;;
16484;SDS011;8353;47.856;12.344;2023-05-29T03:15:53;2.60;;;2.40;;
16484;SDS011;8353;47.856;12.344;2023-05-29T03:18:42;2.93;;;2.63;;
16484;SDS011;8353;47.856;12.344;2023-05-29T03:21:28;2.10;;;1.93;;
16484;SDS011;8353;47.856;12.344;2023-05-29T03:24:18;2.73;;;2.37;;
16484;SDS011;8353;47.856;12.344;2023-05-29T03:27:05;2.93;;;2.17;;
16484;SDS011;8353;47.856;12.344;2023-05-29T03:29:53;2.80;;;2.30;;
16484;SDS011;8353;47.856;12.344;2023-05-29T03:32:40;2.37;;;2.17;;
16484;SDS011;8353;47.856;12.344;2023-05-29T03:35:27;2.70;;;2.33;;
16484;SDS011;8353;47.856;12.344;2023-05-29T03:38:14;2.87;;;2.33;;
16484;SDS011;8353;47.856;12.344;2023-05-29T03:41:03;2.90;;;2.17;;
16484;SDS011;8353;47.856;12.344;2023-05-29T03:43:50;4.07;;;2.60;;
16484;SDS011;8353;47.856;12.344;2023-05-29T03:46:37;2.40;;;1.97;;
16484;SDS011;8353;47.856;12.344;2023-05-29T03:49:24;2.67;;;2.47;;
16484;SDS011;8353;47.856;12.344;2023-05-29T03:52:11;2.53;;;2.30;;
16484;SDS011;8353;47.856;12.344;2023-05-29T03:54:57;3.27;;;2.90;;
16484;SDS011;8353;47.856;12.344;2023-05-29T03:57:46;2.40;;;2.17;;
16484;SDS011;8353;47.856;12.344;2023-05-29T04:00:33;2.20;;;2.00;;
16484;SDS011;8353;47.856;12.344;2023-05-29T04:03:20;2.37;;;2.17;;
16484;SDS011;8353;47.856;12.344;2023-05-29T04:06:08;2.40;;;2.20;;
16484;SDS011;8353;47.856;12.344;2023-05-29T04:08:57;2.97;;;2.50;;
16484;SDS011;8353;47.856;12.344;2023-05-29T04:11:44;5.37;;;2.50;;
16484;SDS011;8353;47.856;12.344;2023-05-29T04:14:35;2.57;;;2.13;;
16484;SDS011;8353;47.856;12.344;2023-05-29T04:17:23;2.57;;;2.30;;
16484;SDS011;8353;47.856;12.344;2023-05-29T04:20:10;4.20;;;2.20;;
16484;SDS011;8353;47.856;12.344;2023-05-29T04:22:57;2.90;;;2.20;;
16484;SDS011;8353;47.856;12.344;2023-05-29T04:25:44;2.47;;;2.07;;
16484;SDS011;8353;47.856;12.344;2023-05-29T04:28:32;2.27;;;2.07;;
16484;SDS011;8353;47.856;12.344;2023-05-29T04:31:22;3.40;;;2.53;;
16484;SDS011;8353;47.856;12.344;2023-05-29T04:34:10;2.53;;;2.00;;
16484;SDS011;8353;47.856;12.344;2023-05-29T04:37:02;4.37;;;3.20;;
16484;SDS011;8353;47.856;12.344;2023-05-29T04:39:49;2.77;;;2.10;;
16484;SDS011;8353;47.856;12.344;2023-05-29T04:42:37;1.93;;;1.73;;
16484;SDS011;8353;47.856;12.344;2023-05-29T04:45:24;4.60;;;2.97;;
16484;SDS011;8353;47.856;12.344;2023-05-29T04:48:13;2.73;;;2.30;;
16484;SDS011;8353;47.856;12.344;2023-05-29T04:51:01;3.75;;;2.53;;
16484;SDS011;8353;47.856;12.344;2023-05-29T04:53:48;3.27;;;2.10;;
16484;SDS011;8353;47.856;12.344;2023-05-29T04:56:36;2.80;;;2.20;;
16484;SDS011;8353;47.856;12.344;2023-05-29T04:59:25;1.90;;;1.80;;
16484;SDS011;8353;47.856;12.344;2023-05-29T05:02:12;3.47;;;2.70;;
16484;SDS011;8353;47.856;12.344;2023-05-29T05:05:00;2.70;;;2.47;;
16484;SDS011;8353;47.856;12.344;2023-05-29T05:07:47;2.20;;;2.00;;
16484;SDS011;8353;47.856;12.344;2023-05-29T05:10:34;6.45;;;3.75;;
16484;SDS011;8353;47.856;12.344;2023-05-29T05:13:21;4.82;;;2.70;;
16484;SDS011;8353;47.856;12.344;2023-05-29T05:16:08;2.35;;;2.15;;
16484;SDS011;8353;47.856;12.344;2023-05-29T05:18:55;2.20;;;2.00;;
16484;SDS011;8353;47.856;12.344;2023-05-29T05:21:43;4.97;;;4.47;;
16484;SDS011;8353;47.856;12.344;2023-05-29T05:24:30;3.30;;;2.60;;
16484;SDS011;8353;47.856;12.344;2023-05-29T05:27:19;6.80;;;4.60;;
16484;SDS011;8353;47.856;12.344;2023-05-29T05:30:07;5.32;;;4.22;;
16484;SDS011;8353;47.856;12.344;2023-05-29T05:32:54;5.20;;;4.53;;
16484;SDS011;8353;47.856;12.344;2023-05-29T05:35:41;7.22;;;4.20;;
16484;SDS011;8353;47.856;12.344;2023-05-29T05:38:30;3.70;;;3.30;;
16484;SDS011;8353;47.856;12.344;2023-05-29T05:41:17;3.47;;;2.92;;
16484;SDS011;8353;47.856;12.344;2023-05-29T05:44:04;2.75;;;2.47;;
16484;SDS011;8353;47.856;12.344;2023-05-29T05:46:51;2.80;;;2.50;;
16484;SDS011;8353;47.856;12.344;2023-05-29T05:49:39;3.08;;;2.55;;
16484;SDS011;8353;47.856;12.344;2023-05-29T05:52:29;4.88;;;3.35;;
16484;SDS011;8353;47.856;12.344;2023-05-29T05:55:19;5.10;;;3.45;;
16484;SDS011;8353;47.856;12.344;2023-05-29T05:58:06;3.90;;;3.00;;
16484;SDS011;8353;47.856;12.344;2023-05-29T06:00:52;2.30;;;2.10;;
16484;SDS011;8353;47.856;12.344;2023-05-29T06:03:40;5.40;;;4.40;;
16484;SDS011;8353;47.856;12.344;2023-05-29T06:06:27;3.75;;;3.40;;
16484;SDS011;8353;47.856;12.344;2023-05-29T06:09:16;3.53;;;3.00;;
16484;SDS011;8353;47.856;12.344;2023-05-29T06:12:06;11.30;;;4.85;;
16484;SDS011;8353;47.856;12.344;2023-05-29T06:14:53;5.63;;;4.82;;
16484;SDS011;8353;47.856;12.344;2023-05-29T06:17:40;4.38;;;3.92;;
16484;SDS011;8353;47.856;12.344;2023-05-29T06:20:27;4.45;;;3.80;;
16484;SDS011;8353;47.856;12.344;2023-05-29T06:23:14;4.85;;;3.80;;
16484;SDS011;8353;47.856;12.344;2023-05-29T06:26:02;5.70;;;4.70;;
16484;SDS011;8353;47.856;12.344;2023-05-29T06:28:56;6.97;;;4.00;;
16484;SDS011;8353;47.856;12.344;2023-05-29T06:31:44;4.38;;;3.50;;
16484;SDS011;8353;47.856;12.344;2023-05-29T06:34:40;4.10;;;3.33;;
16484;SDS011;8353;47.856;12.344;2023-05-29T06:37:33;2.95;;;2.65;;
16484;SDS011;8353;47.856;12.344;2023-05-29T06:40:20;7.63;;;4.18;;
16484;SDS011;8353;47.856;12.344;2023-05-29T06:43:08;3.83;;;3.53;;
16484;SDS011;8353;47.856;12.344;2023-05-29T06:46:00;7.38;;;4.72;;
16484;SDS011;8353;47.856;12.344;2023-05-29T06:48:49;3.95;;;3.20;;
16484;SDS011;8353;47.856;12.344;2023-05-29T06:51:36;13.63;;;5.32;;
16484;SDS011;8353;47.856;12.344;2023-05-29T06:54:24;5.78;;;4.72;;
16484;SDS011;8353;47.856;12.344;2023-05-29T06:57:11;6.40;;;5.10;;
16484;SDS011;8353;47.856;12.344;2023-05-29T06:59:58;4.50;;;3.55;;
16484;SDS011;8353;47.856;12.344;2023-05-29T07:02:46;7.70;;;5.57;;
16484;SDS011;8353;47.856;12.344;2023-05-29T07:05:33;2.67;;;2.47;;
16484;SDS011;8353;47.856;12.344;2023-05-29T07:08:20;4.10;;;3.13;;
16484;SDS011;8353;47.856;12.344;2023-05-29T07:11:13;6.30;;;4.22;;
16484;SDS011;8353;47.856;12.344;2023-05-29T07:14:02;4.75;;;3.75;;
16484;SDS011;8353;47.856;12.344;2023-05-29T07:16:53;4.22;;;3.83;;
16484;SDS011;8353;47.856;12.344;2023-05-29T07:19:45;5.68;;;4.25;;
16484;SDS011;8353;47.856;12.344;2023-05-29T07:22:34;5.43;;;4.00;;
16484;SDS011;8353;47.856;12.344;2023-05-29T07:25:21;5.07;;;3.95;;
16484;SDS011;8353;47.856;12.344;2023-05-29T07:28:08;5.95;;;4.13;;
16484;SDS011;8353;47.856;12.344;2023-05-29T07:30:55;4.97;;;3.97;;
16484;SDS011;8353;47.856;12.344;2023-05-29T07:33:42;4.05;;;3.65;;
16484;SDS011;8353;47.856;12.344;2023-05-29T07:36:31;3.20;;;2.90;;
16484;SDS011;8353;47.856;12.344;2023-05-29T07:39:18;5.30;;;4.03;;
16484;SDS011;8353;47.856;12.344;2023-05-29T07:42:07;4.97;;;4.00;;
16484;SDS011;8353;47.856;12.344;2023-05-29T07:44:56;6.00;;;4.60;;
16484;SDS011;8353;47.856;12.344;2023-05-29T07:47:44;5.38;;;4.80;;
16484;SDS011;8353;47.856;12.344;2023-05-29T07:50:32;5.68;;;4.18;;
16484;SDS011;8353;47.856;12.344;2023-05-29T07:53:21;4.45;;;3.78;;
16484;SDS011;8353;47.856;12.344;2023-05-29T07:56:08;4.35;;;3.95;;
16484;SDS011;8353;47.856;12.344;2023-05-29T07:58:55;4.38;;;3.42;;
16484;SDS011;8353;47.856;12.344;2023-05-29T08:01:44;4.97;;;3.67;;
16484;SDS011;8353;47.856;12.344;2023-05-29T08:04:32;5.15;;;3.83;;
16484;SDS011;8353;47.856;12.344;2023-05-29T08:07:21;4.35;;;3.72;;
16484;SDS011;8353;47.856;12.344;2023-05-29T08:10:10;3.97;;;3.47;;
16484;SDS011;8353;47.856;12.344;2023-05-29T08:13:00;6.35;;;4.25;;
16484;SDS011;8353;47.856;12.344;2023-05-29T08:15:47;4.07;;;3.38;;
16484;SDS011;8353;47.856;12.344;2023-05-29T08:18:35;3.30;;;3.00;;
16484;SDS011;8353;47.856;12.344;2023-05-29T08:21:23;5.75;;;3.95;;
16484;SDS011;8353;47.856;12.344;2023-05-29T08:24:10;3.75;;;2.92;;
16484;SDS011;8353;47.856;12.344;2023-05-29T08:27:04;3.55;;;3.17;;
16484;SDS011;8353;47.856;12.344;2023-05-29T08:29:51;4.05;;;3.22;;
16484;SDS011;8353;47.856;12.344;2023-05-29T08:32:39;3.47;;;3.17;;
16484;SDS011;8353;47.856;12.344;2023-05-29T08:35:33;4.28;;;3.55;;
16484;SDS011;8353;47.856;12.344;2023-05-29T08:38:29;3.70;;;3.33;;
16484;SDS011;8353;47.856;12.344;2023-05-29T08:41:24;6.05;;;3.58;;
16484;SDS011;8353;47.856;12.344;2023-05-29T08:47:25;4.03;;;3.63;;
16484;SDS011;8353;47.856;12.344;2023-05-29T08:50:13;3.22;;;2.92;;
16484;SDS011;8353;47.856;12.344;2023-05-29T08:53:17;4.35;;;3.95;;
16484;SDS011;8353;47.856;12.344;2023-05-29T08:56:07;4.45;;;3.97;;
16484;SDS011;8353;47.856;12.344;2023-05-29T08:58:56;7.00;;;4.22;;
16484;SDS011;8353;47.856;12.344;2023-05-29T09:01:45;6.30;;;4.65;;
16484;SDS011;8353;47.856;12.344;2023-05-29T09:04:34;3.60;;;3.30;;
16484;SDS011;8353;47.856;12.344;2023-05-29T09:07:21;5.72;;;4.10;;
16484;SDS011;8353;47.856;12.344;2023-05-29T09:10:11;5.10;;;4.25;;
16484;SDS011;8353;47.856;12.344;2023-05-29T09:12:58;4.55;;;4.05;;
16484;SDS011;8353;47.856;12.344;2023-05-29T09:15:45;5.15;;;3.22;;
16484;SDS011;8353;47.856;12.344;2023-05-29T09:18:34;5.18;;;4.57;;
16484;SDS011;8353;47.856;12.344;2023-05-29T09:21:25;4.78;;;4.28;;
16484;SDS011;8353;47.856;12.344;2023-05-29T09:24:14;4.20;;;3.72;;
16484;SDS011;8353;47.856;12.344;2023-05-29T09:27:02;6.75;;;4.22;;
16484;SDS011;8353;47.856;12.344;2023-05-29T09:29:50;4.97;;;3.55;;
16484;SDS011;8353;47.856;12.344;2023-05-29T09:32:37;6.65;;;3.70;;
16484;SDS011;8353;47.856;12.344;2023-05-29T09:35:28;5.95;;;4.50;;
16484;SDS011;8353;47.856;12.344;2023-05-29T09:38:19;4.80;;;3.97;;
16484;SDS011;8353;47.856;12.344;2023-05-29T09:41:06;5.07;;;4.30;;
16484;SDS011;8353;47.856;12.344;2023-05-29T09:43:53;3.90;;;3.50;;
16484;SDS011;8353;47.856;12.344;2023-05-29T09:46:42;4.60;;;3.67;;
16484;SDS011;8353;47.856;12.344;2023-05-29T09:49:33;4.88;;;3.97;;
16484;SDS011;8353;47.856;12.344;2023-05-29T09:52:24;5.03;;;3.78;;
16484;SDS011;8353;47.856;12.344;2023-05-29T09:55:13;4.28;;;3.88;;
16484;SDS011;8353;47.856;12.344;2023-05-29T09:58:03;3.95;;;3.55;;
16484;SDS011;8353;47.856;12.344;2023-05-29T10:00:52;4.38;;;3.78;;
16484;SDS011;8353;47.856;12.344;2023-05-29T10:03:42;4.50;;;4.10;;
16484;SDS011;8353;47.856;12.344;2023-05-29T10:06:29;4.00;;;3.50;;
16484;SDS011;8353;47.856;12.344;2023-05-29T10:09:18;3.72;;;3.35;;
16484;SDS011;8353;47.856;12.344;2023-05-29T10:12:08;4.85;;;3.80;;
16484;SDS011;8353;47.856;12.344;2023-05-29T10:14:59;3.63;;;3.33;;
16484;SDS011;8353;47.856;12.344;2023-05-29T10:17:56;5.88;;;3.80;;
16484;SDS011;8353;47.856;12.344;2023-05-29T10:20:47;4.10;;;3.67;;
16484;SDS011;8353;47.856;12.344;2023-05-29T10:23:37;4.80;;;3.88;;
16484;SDS011;8353;47.856;12.344;2023-05-29T10:26:28;3.90;;;3.50;;
16484;SDS011;8353;47.856;12.344;2023-05-29T10:29:23;4.68;;;3.92;;
16484;SDS011;8353;47.856;12.344;2023-05-29T10:32:19;4.70;;;3.67;;
16484;SDS011;8353;47.856;12.344;2023-05-29T10:35:11;3.95;;;3.38;;
16484;SDS011;8353;47.856;12.344;2023-05-29T10:38:09;4.65;;;3.80;;
16484;SDS011;8353;47.856;12.344;2023-05-29T10:41:11;5.30;;;4.20;;
16484;SDS011;8353;47.856;12.344;2023-05-29T10:47:26;6.00;;;4.10;;
16484;SDS011;8353;47.856;12.344;2023-05-29T10:50:13;7.20;;;4.25;;
16484;SDS011;8353;47.856;12.344;2023-05-29T10:53:24;4.70;;;3.55;;
16484;SDS011;8353;47.856;12.344;2023-05-29T10:56:14;4.22;;;3.55;;
16484;SDS011;8353;47.856;12.344;2023-05-29T10:59:12;5.32;;;3.88;;
16484;SDS011;8353;47.856;12.344;2023-05-29T11:01:59;4.20;;;3.50;;
16484;SDS011;8353;47.856;12.344;2023-05-29T11:07:55;3.42;;;3.13;;
16484;SDS011;8353;47.856;12.344;2023-05-29T11:13:51;4.05;;;3.55;;
16484;SDS011;8353;47.856;12.344;2023-05-29T11:16:41;3.72;;;3.40;;
16484;SDS011;8353;47.856;12.344;2023-05-29T11:19:28;3.40;;;3.00;;
16484;SDS011;8353;47.856;12.344;2023-05-29T11:22:18;4.63;;;3.60;;
16484;SDS011;8353;47.856;12.344;2023-05-29T11:25:13;3.97;;;3.58;;
16484;SDS011;8353;47.856;12.344;2023-05-29T11:28:01;4.32;;;3.50;;
16484;SDS011;8353;47.856;12.344;2023-05-29T11:30:53;4.88;;;3.85;;
16484;SDS011;8353;47.856;12.344;2023-05-29T11:33:49;4.80;;;4.05;;
16484;SDS011;8353;47.856;12.344;2023-05-29T11:36:38;3.72;;;3.42;;
16484;SDS011;8353;47.856;12.344;2023-05-29T11:39:26;4.00;;;3.60;;
16484;SDS011;8353;47.856;12.344;2023-05-29T11:42:14;4.10;;;3.65;;
16484;SDS011;8353;47.856;12.344;2023-05-29T11:45:12;6.63;;;4.30;;
16484;SDS011;8353;47.856;12.344;2023-05-29T11:48:01;4.75;;;3.97;;
16484;SDS011;8353;47.856;12.344;2023-05-29T11:50:50;6.32;;;4.10;;
16484;SDS011;8353;47.856;12.344;2023-05-29T11:53:41;4.47;;;3.78;;
16484;SDS011;8353;47.856;12.344;2023-05-29T11:56:29;3.88;;;3.50;;
16484;SDS011;8353;47.856;12.344;2023-05-29T11:59:16;4.57;;;4.15;;
16484;SDS011;8353;47.856;12.344;2023-05-29T12:02:04;5.03;;;4.28;;
16484;SDS011;8353;47.856;12.344;2023-05-29T12:04:59;4.88;;;4.20;;
16484;SDS011;8353;47.856;12.344;2023-05-29T12:07:48;3.65;;;3.35;;
16484;SDS011;8353;47.856;12.344;2023-05-29T12:10:36;4.68;;;4.00;;
16484;SDS011;8353;47.856;12.344;2023-05-29T12:13:24;4.70;;;3.88;;
16484;SDS011;8353;47.856;12.344;2023-05-29T12:16:11;4.20;;;3.67;;
16484;SDS011;8353;47.856;12.344;2023-05-29T12:18:58;5.13;;;3.75;;
16484;SDS011;8353;47.856;12.344;2023-05-29T12:21:45;3.92;;;3.63;;
16484;SDS011;8353;47.856;12.344;2023-05-29T12:24:35;5.13;;;4.00;;
16484;SDS011;8353;47.856;12.344;2023-05-29T12:27:23;5.07;;;3.60;;
16484;SDS011;8353;47.856;12.344;2023-05-29T12:30:12;3.60;;;3.30;;
16484;SDS011;8353;47.856;12.344;2023-05-29T12:33:03;4.20;;;3.75;;
16484;SDS011;8353;47.856;12.344;2023-05-29T12:35:51;3.97;;;3.67;;
16484;SDS011;8353;47.856;12.344;2023-05-29T12:38:49;4.07;;;3.28;;
16484;SDS011;8353;47.856;12.344;2023-05-29T12:41:39;4.50;;;3.65;;
16484;SDS011;8353;47.856;12.344;2023-05-29T12:44:29;3.95;;;3.45;;
16484;SDS011;8353;47.856;12.344;2023-05-29T12:47:22;3.40;;;3.10;;
16484;SDS011;8353;47.856;12.344;2023-05-29T12:50:19;6.40;;;4.13;;
16484;SDS011;8353;47.856;12.344;2023-05-29T12:53:13;5.25;;;4.05;;
16484;SDS011;8353;47.856;12.344;2023-05-29T12:56:01;3.97;;;3.63;;
16484;SDS011;8353;47.856;12.344;2023-05-29T12:58:51;4.82;;;3.63;;
16484;SDS011;8353;47.856;12.344;2023-05-29T13:01:38;4.18;;;3.75;;
16484;SDS011;8353;47.856;12.344;2023-05-29T13:04:28;5.30;;;3.80;;
16484;SDS011;8353;47.856;12.344;2023-05-29T13:07:18;3.92;;;3.55;;
16484;SDS011;8353;47.856;12.344;2023-05-29T13:10:06;4.82;;;4.07;;
16484;SDS011;8353;47.856;12.344;2023-05-29T13:12:56;5.55;;;4.05;;
16484;SDS011;8353;47.856;12.344;2023-05-29T13:15:45;4.10;;;3.72;;
16484;SDS011;8353;47.856;12.344;2023-05-29T13:18:32;3.92;;;3.50;;
16484;SDS011;8353;47.856;12.344;2023-05-29T13:21:20;3.72;;;3.40;;
16484;SDS011;8353;47.856;12.344;2023-05-29T13:24:09;4.50;;;3.95;;
16484;SDS011;8353;47.856;12.344;2023-05-29T13:26:56;3.22;;;2.92;;
16484;SDS011;8353;47.856;12.344;2023-05-29T13:29:43;4.25;;;3.60;;
16484;SDS011;8353;47.856;12.344;2023-05-29T13:32:32;3.45;;;3.15;;
16484;SDS011;8353;47.856;12.344;2023-05-29T13:35:19;3.60;;;3.00;;
16484;SDS011;8353;47.856;12.344;2023-05-29T13:38:08;4.38;;;3.63;;
16484;SDS011;8353;47.856;12.344;2023-05-29T13:40:55;4.63;;;3.80;;
16484;SDS011;8353;47.856;12.344;2023-05-29T13:43:42;4.00;;;3.58;;
16484;SDS011;8353;47.856;12.344;2023-05-29T13:46:29;3.80;;;3.17;;
16484;SDS011;8353;47.856;12.344;2023-05-29T13:49:20;4.13;;;3.13;;
16484;SDS011;8353;47.856;12.344;2023-05-29T13:52:08;3.80;;;2.97;;
16484;SDS011;8353;47.856;12.344;2023-05-29T13:54:56;3.60;;;3.30;;
16484;SDS011;8353;47.856;12.344;2023-05-29T13:57:51;3.95;;;3.55;;
16484;SDS011;8353;47.856;12.344;2023-05-29T14:00:38;4.70;;;3.50;;
16484;SDS011;8353;47.856;12.344;2023-05-29T14:03:25;3.83;;;3.47;;
16484;SDS011;8353;47.856;12.344;2023-05-29T14:06:15;5.38;;;3.63;;
16484;SDS011;8353;47.856;12.344;2023-05-29T14:09:02;4.10;;;3.50;;
16484;SDS011;8353;47.856;12.344;2023-05-29T14:11:49;3.30;;;3.00;;
16484;SDS011;8353;47.856;12.344;2023-05-29T14:14:50;4.47;;;3.25;;
16484;SDS011;8353;47.856;12.344;2023-05-29T14:17:38;4.93;;;4.07;;
16484;SDS011;8353;47.856;12.344;2023-05-29T14:20:25;4.43;;;3.15;;
16484;SDS011;8353;47.856;12.344;2023-05-29T14:23:13;4.20;;;3.75;;
16484;SDS011;8353;47.856;12.344;2023-05-29T14:26:00;3.63;;;3.33;;
16484;SDS011;8353;47.856;12.344;2023-05-29T14:28:47;3.38;;;3.05;;
16484;SDS011;8353;47.856;12.344;2023-05-29T14:31:34;5.28;;;3.33;;
16484;SDS011;8353;47.856;12.344;2023-05-29T14:34:22;3.67;;;3.38;;
16484;SDS011;8353;47.856;12.344;2023-05-29T14:37:11;4.15;;;3.55;;
16484;SDS011;8353;47.856;12.344;2023-05-29T14:39:59;3.83;;;3.20;;
16484;SDS011;8353;47.856;12.344;2023-05-29T14:42:48;3.50;;;3.20;;
16484;SDS011;8353;47.856;12.344;2023-05-29T14:45:35;3.13;;;2.80;;
16484;SDS011;8353;47.856;12.344;2023-05-29T14:48:22;3.30;;;3.00;;
16484;SDS011;8353;47.856;12.344;2023-05-29T14:51:09;3.40;;;3.10;;
16484;SDS011;8353;47.856;12.344;2023-05-29T14:53:56;4.32;;;3.53;;
16484;SDS011;8353;47.856;12.344;2023-05-29T14:56:45;4.18;;;3.28;;
16484;SDS011;8353;47.856;12.344;2023-05-29T14:59:32;5.18;;;3.13;;
16484;SDS011;8353;47.856;12.344;2023-05-29T15:02:19;3.20;;;2.92;;
16484;SDS011;8353;47.856;12.344;2023-05-29T15:05:06;3.30;;;3.00;;
16484;SDS011;8353;47.856;12.344;2023-05-29T15:07:54;5.32;;;4.55;;
16484;SDS011;8353;47.856;12.344;2023-05-29T15:10:41;5.55;;;4.28;;
16484;SDS011;8353;47.856;12.344;2023-05-29T15:13:31;3.30;;;3.00;;
16484;SDS011;8353;47.856;12.344;2023-05-29T15:16:18;4.38;;;3.20;;
16484;SDS011;8353;47.856;12.344;2023-05-29T15:19:05;3.60;;;3.13;;
16484;SDS011;8353;47.856;12.344;2023-05-29T15:21:52;3.30;;;3.00;;
16484;SDS011;8353;47.856;12.344;2023-05-29T15:24:39;3.20;;;2.90;;
16484;SDS011;8353;47.856;12.344;2023-05-29T15:27:26;3.33;;;3.03;;
16484;SDS011;8353;47.856;12.344;2023-05-29T15:30:18;3.38;;;3.00;;
16484;SDS011;8353;47.856;12.344;2023-05-29T15:33:07;3.35;;;3.05;;
16484;SDS011;8353;47.856;12.344;2023-05-29T15:35:55;3.38;;;3.08;;
16484;SDS011;8353;47.856;12.344;2023-05-29T15:38:42;3.33;;;3.03;;
16484;SDS011;8353;47.856;12.344;2023-05-29T15:41:29;3.50;;;3.03;;
16484;SDS011;8353;47.856;12.344;2023-05-29T15:44:16;2.90;;;2.60;;
16484;SDS011;8353;47.856;12.344;2023-05-29T15:47:06;3.03;;;2.83;;
16484;SDS011;8353;47.856;12.344;2023-05-29T15:49:53;3.20;;;2.90;;
16484;SDS011;8353;47.856;12.344;2023-05-29T15:52:41;3.10;;;2.80;;
16484;SDS011;8353;47.856;12.344;2023-05-29T15:55:28;2.70;;;2.50;;
16484;SDS011;8353;47.856;12.344;2023-05-29T15:58:15;2.88;;;2.60;;
16484;SDS011;8353;47.856;12.344;2023-05-29T16:01:03;3.35;;;2.90;;
16484;SDS011;8353;47.856;12.344;2023-05-29T16:03:51;2.92;;;2.60;;
16484;SDS011;8353;47.856;12.344;2023-05-29T16:06:39;3.50;;;3.20;;
16484;SDS011;8353;47.856;12.344;2023-05-29T16:09:26;3.03;;;2.72;;
16484;SDS011;8353;47.856;12.344;2023-05-29T16:12:14;4.03;;;3.05;;
16484;SDS011;8353;47.856;12.344;2023-05-29T16:15:01;2.80;;;2.60;;
16484;SDS011;8353;47.856;12.344;2023-05-29T16:17:49;4.03;;;3.00;;
16484;SDS011;8353;47.856;12.344;2023-05-29T16:20:37;3.40;;;3.08;;
16484;SDS011;8353;47.856;12.344;2023-05-29T16:23:24;2.80;;;2.50;;
16484;SDS011;8353;47.856;12.344;2023-05-29T16:26:11;2.92;;;2.28;;
16484;SDS011;8353;47.856;12.344;2023-05-29T16:28:59;2.60;;;2.40;;
16484;SDS011;8353;47.856;12.344;2023-05-29T16:31:47;2.97;;;2.78;;
16484;SDS011;8353;47.856;12.344;2023-05-29T16:34:34;4.40;;;2.97;;
16484;SDS011;8353;47.856;12.344;2023-05-29T16:37:24;3.00;;;2.70;;
16484;SDS011;8353;47.856;12.344;2023-05-29T16:40:12;3.17;;;2.85;;
16484;SDS011;8353;47.856;12.344;2023-05-29T16:43:00;4.70;;;2.45;;
16484;SDS011;8353;47.856;12.344;2023-05-29T16:45:47;3.78;;;2.80;;
16484;SDS011;8353;47.856;12.344;2023-05-29T16:48:34;3.30;;;3.00;;
16484;SDS011;8353;47.856;12.344;2023-05-29T16:51:24;3.45;;;3.15;;
16484;SDS011;8353;47.856;12.344;2023-05-29T16:54:12;3.33;;;2.80;;
16484;SDS011;8353;47.856;12.344;2023-05-29T16:56:59;3.88;;;3.10;;
16484;SDS011;8353;47.856;12.344;2023-05-29T16:59:46;3.42;;;3.13;;
16484;SDS011;8353;47.856;12.344;2023-05-29T17:02:33;3.13;;;2.83;;
16484;SDS011;8353;47.856;12.344;2023-05-29T17:05:21;4.15;;;3.45;;
16484;SDS011;8353;47.856;12.344;2023-05-29T17:08:08;5.53;;;3.55;;
16484;SDS011;8353;47.856;12.344;2023-05-29T17:10:57;3.03;;;2.50;;